Rhodes, Greece
Current Conditions -  °F | °C
As of 11:20 AM on Monday 22 Dec 2014 (Local Time) from LGRP Reporting Station
Few Clouds Few Clouds  
Wind Chill: 57°   Ceiling: Unl
Heat Index: 57°   Visibility: 6mi
Dew Point: 37°   Wind: 18mph
Humidity: 48%   Direction: 320°NW
Pressure: 30.12"   Gusts: NA
Location:  36.43°N, 28.22°E
Report Text: LGRP 220820Z 32016KT 9999 FEW018 14/03 Q1020 NOSIG
Loading
Personal Weather Stations






























Interactive Weather Map New forecast layout! Learn more

10-Day Weather Forecast

Advertisements
Track Severe Weather on mobile